createdAt,value
2023-01-26T00:02:03.933Z,19.53
2023-01-26T00:04:31.451Z,19.35
2023-01-26T00:06:59.318Z,19.58
2023-01-26T00:09:26.917Z,19.47
2023-01-26T00:11:54.499Z,19.89
2023-01-26T00:14:22.060Z,19.79
2023-01-26T00:16:49.559Z,20.66
2023-01-26T00:19:17.246Z,19.85
2023-01-26T00:21:45.096Z,19.38
2023-01-26T00:24:12.691Z,20.22
2023-01-26T00:26:40.152Z,21.04
2023-01-26T00:29:07.753Z,20.39
2023-01-26T00:31:35.498Z,20.53
2023-01-26T00:34:03.071Z,20.13
2023-01-26T00:36:30.633Z,20.02
2023-01-26T00:38:58.245Z,19.66
2023-01-26T00:41:44.016Z,19.98
2023-01-26T00:44:11.594Z,19.53
2023-01-26T00:46:39.157Z,19.85
2023-01-26T00:49:07.809Z,19.32
2023-01-26T00:51:35.369Z,19.41
2023-01-26T00:54:05.008Z,19.42
2023-01-26T00:56:32.544Z,19.52
2023-01-26T00:59:00.113Z,19.66
2023-01-26T01:01:27.935Z,20.16
2023-01-26T01:03:55.560Z,20.15
2023-01-26T01:06:23.332Z,20.17
2023-01-26T01:08:51.640Z,19.99
2023-01-26T01:11:19.123Z,19.57
2023-01-26T01:13:46.679Z,19.44
2023-01-26T01:16:16.520Z,19.72
2023-01-26T01:18:44.493Z,19.88
2023-01-26T01:21:15.639Z,19.44
2023-01-26T01:23:43.846Z,19.42
2023-01-26T01:26:11.890Z,19.94
2023-01-26T01:28:40.457Z,19.22
2023-01-26T01:31:10.894Z,19.62
2023-01-26T01:33:38.767Z,20.48
2023-01-26T01:36:14.902Z,19.88
2023-01-26T01:38:44.502Z,19.67
2023-01-26T01:41:12.928Z,19.25
2023-01-26T01:43:41.676Z,19.61
2023-01-26T01:46:32.585Z,19.24
2023-01-26T01:49:05.367Z,19.17
2023-01-26T01:51:48.372Z,19.53
2023-01-26T01:54:21.249Z,19.28
2023-01-26T01:56:52.488Z,19.49
2023-01-26T01:59:22.084Z,19.68
2023-01-26T02:01:51.967Z,19.06
2023-01-26T02:04:22.686Z,19.97
2023-01-26T02:06:54.446Z,20.41
2023-01-26T02:09:52.228Z,20.41
2023-01-26T02:12:29.321Z,20.07
2023-01-26T02:14:58.360Z,19.40
2023-01-26T02:17:27.144Z,19.42
2023-01-26T02:20:04.532Z,19.02
2023-01-26T02:23:17.712Z,18.96
2023-01-26T02:25:53.856Z,18.79
2023-01-26T02:28:25.935Z,19.36
2023-01-26T02:30:56.157Z,19.62
2023-01-26T02:33:27.412Z,19.32
2023-01-26T02:35:59.817Z,19.24
2023-01-26T02:38:39.045Z,19.35
2023-01-26T02:41:11.140Z,19.40
2023-01-26T02:43:40.267Z,19.59
2023-01-26T02:46:07.819Z,20.06
2023-01-26T02:48:57.429Z,19.65
2023-01-26T02:51:25.206Z,20.02
2023-01-26T02:53:53.237Z,19.79
2023-01-26T02:56:20.786Z,19.68
2023-01-26T02:58:48.794Z,19.93
2023-01-26T03:01:16.396Z,19.43
2023-01-26T03:03:47.831Z,19.94
2023-01-26T03:06:16.990Z,20.25
2023-01-26T03:08:44.633Z,19.65
2023-01-26T03:11:12.228Z,19.93
2023-01-26T03:13:39.825Z,19.89
2023-01-26T03:16:09.324Z,19.56
2023-01-26T03:18:55.287Z,19.71
2023-01-26T03:21:42.278Z,19.99
2023-01-26T03:24:33.906Z,20.25
2023-01-26T03:27:24.610Z,20.33
2023-01-26T03:29:55.336Z,19.15
2023-01-26T03:32:23.829Z,19.51
2023-01-26T03:34:53.129Z,19.35
2023-01-26T03:37:22.794Z,20.04
2023-01-26T03:40:23.817Z,19.53
2023-01-26T03:43:10.747Z,18.80
2023-01-26T03:45:57.005Z,19.82
2023-01-26T03:48:45.583Z,19.51
2023-01-26T03:51:31.862Z,19.72
2023-01-26T03:54:17.987Z,19.53
2023-01-26T03:56:45.626Z,20.03
2023-01-26T03:59:16.696Z,19.53
2023-01-26T04:02:05.529Z,19.37
2023-01-26T04:04:52.834Z,19.64
2023-01-26T04:07:42.728Z,19.91
2023-01-26T04:10:11.107Z,19.77
2023-01-26T04:12:43.576Z,20.33
2023-01-26T04:15:47.797Z,19.50
2023-01-26T04:18:34.202Z,20.13
2023-01-26T04:21:24.396Z,19.82
2023-01-26T04:23:56.554Z,19.55
2023-01-26T04:26:27.629Z,20.07
2023-01-26T04:28:55.491Z,20.11
2023-01-26T04:31:23.122Z,20.12
2023-01-26T04:33:51.431Z,20.20
2023-01-26T04:36:19.037Z,19.82
2023-01-26T04:38:49.651Z,20.37
2023-01-26T04:41:20.036Z,20.45
2023-01-26T04:43:54.012Z,20.33
2023-01-26T04:46:22.177Z,20.98
2023-01-26T04:48:50.642Z,20.97
2023-01-26T04:51:20.995Z,20.91
2023-01-26T04:53:49.514Z,20.53
2023-01-26T04:56:28.052Z,20.79
2023-01-26T04:58:58.083Z,20.56
2023-01-26T05:01:26.239Z,20.87
2023-01-26T05:03:54.130Z,21.01
2023-01-26T05:06:22.977Z,20.33
2023-01-26T05:08:51.196Z,21.11
2023-01-26T05:11:19.204Z,20.41
2023-01-26T05:13:55.749Z,20.32
2023-01-26T05:16:26.650Z,19.55
2023-01-26T05:19:14.410Z,19.94
2023-01-26T05:21:47.150Z,20.26
2023-01-26T05:24:14.832Z,19.92
2023-01-26T05:27:18.527Z,19.77
2023-01-26T05:29:50.765Z,19.76
2023-01-26T05:32:19.317Z,19.57
2023-01-26T05:34:46.963Z,19.73
2023-01-26T05:37:15.538Z,20.04
2023-01-26T05:39:45.641Z,19.60
2023-01-26T05:42:13.749Z,20.95
2023-01-26T05:44:47.044Z,20.54
2023-01-26T05:47:16.659Z,19.81
2023-01-26T05:49:48.054Z,21.16
2023-01-26T05:52:23.375Z,19.90
2023-01-26T05:54:51.782Z,20.17
2023-01-26T05:57:20.668Z,19.90
2023-01-26T05:59:53.079Z,20.08
2023-01-26T06:02:21.676Z,20.00
2023-01-26T06:04:49.927Z,19.88
2023-01-26T06:07:17.602Z,19.68
2023-01-26T06:09:57.090Z,20.14
2023-01-26T06:12:45.532Z,19.75
2023-01-26T06:15:19.977Z,19.83
2023-01-26T06:17:49.163Z,20.45
2023-01-26T06:20:18.477Z,20.39
2023-01-26T06:22:54.932Z,19.95
2023-01-26T06:25:22.486Z,19.64
2023-01-26T06:27:51.199Z,20.22
2023-01-26T06:30:29.551Z,20.69
2023-01-26T06:33:02.049Z,21.71
2023-01-26T06:35:30.694Z,22.44
2023-01-26T06:38:02.110Z,21.46
2023-01-26T06:40:31.289Z,20.08
2023-01-26T06:42:58.903Z,19.81
2023-01-26T06:45:27.143Z,19.90
2023-01-26T06:47:55.652Z,19.82
2023-01-26T06:50:31.431Z,19.61
2023-01-26T06:53:02.965Z,19.24
2023-01-26T06:55:47.736Z,19.46
2023-01-26T06:58:27.956Z,20.26
2023-01-26T07:01:23.658Z,18.95
2023-01-26T07:03:52.933Z,19.83
2023-01-26T07:06:21.159Z,20.28
2023-01-26T07:08:49.268Z,19.39
2023-01-26T07:11:17.417Z,19.14
2023-01-26T07:13:44.967Z,19.10
2023-01-26T07:16:15.348Z,19.33
2023-01-26T07:18:43.343Z,21.12
2023-01-26T07:21:13.895Z,19.82
2023-01-26T07:23:41.489Z,19.58
2023-01-26T07:26:09.094Z,20.01
2023-01-26T07:28:39.235Z,20.13
2023-01-26T07:31:08.935Z,19.20
2023-01-26T07:33:36.683Z,20.32
2023-01-26T07:36:04.955Z,18.98
2023-01-26T07:38:33.470Z,19.14
2023-01-26T07:41:06.353Z,19.66
2023-01-26T07:43:35.906Z,19.37
2023-01-26T07:46:03.940Z,18.97
2023-01-26T07:48:32.100Z,19.41
2023-01-26T07:51:03.762Z,19.10
2023-01-26T07:53:34.236Z,19.00
2023-01-26T07:56:12.257Z,19.34
2023-01-26T07:58:40.036Z,19.95
2023-01-26T08:01:13.354Z,20.11
2023-01-26T08:03:42.588Z,19.77
2023-01-26T08:06:12.147Z,19.32
2023-01-26T08:08:42.414Z,19.18
2023-01-26T08:11:12.012Z,19.00
2023-01-26T08:13:39.562Z,18.72
2023-01-26T08:16:12.863Z,18.50
2023-01-26T08:18:42.135Z,19.08
2023-01-26T08:21:11.352Z,19.68
2023-01-26T08:23:39.366Z,20.21
2023-01-26T08:26:10.237Z,18.89
2023-01-26T08:28:37.905Z,19.22
2023-01-26T08:31:12.201Z,18.95
2023-01-26T08:33:43.668Z,19.87
2023-01-26T08:36:13.653Z,21.23
2023-01-26T08:38:42.181Z,20.74
2023-01-26T08:41:13.122Z,19.92
2023-01-26T08:43:40.766Z,18.81
2023-01-26T08:46:08.332Z,20.88
2023-01-26T08:48:36.151Z,20.81
2023-01-26T08:51:06.042Z,19.86
2023-01-26T08:53:35.390Z,19.20
2023-01-26T08:56:08.187Z,19.83
2023-01-26T08:58:36.208Z,18.56
2023-01-26T09:01:17.041Z,18.15
2023-01-26T09:03:44.966Z,18.60
2023-01-26T09:06:14.657Z,18.09
2023-01-26T09:08:42.400Z,18.39
2023-01-26T09:11:10.083Z,18.40
2023-01-26T09:13:39.077Z,18.70
2023-01-26T09:16:12.575Z,18.98
2023-01-26T09:18:40.381Z,19.14
2023-01-26T09:21:09.967Z,19.27
2023-01-26T09:23:38.771Z,21.74
2023-01-26T09:26:06.321Z,19.86
2023-01-26T09:28:33.952Z,18.44
2023-01-26T09:31:10.646Z,19.30
2023-01-26T09:33:38.454Z,18.80
2023-01-26T09:36:08.168Z,20.33
2023-01-26T09:38:35.936Z,18.76
2023-01-26T09:41:34.310Z,19.79
2023-01-26T09:44:08.296Z,20.28
2023-01-26T09:46:51.298Z,19.77
2023-01-26T09:49:21.977Z,19.72
2023-01-26T09:52:04.718Z,19.81
2023-01-26T09:54:38.294Z,19.81
2023-01-26T09:57:16.963Z,18.59
2023-01-26T10:00:13.651Z,18.91
2023-01-26T10:02:49.479Z,18.64
2023-01-26T10:05:32.607Z,18.23
2023-01-26T10:08:12.857Z,18.93
2023-01-26T10:10:48.142Z,18.66
2023-01-26T10:13:17.441Z,18.56
2023-01-26T10:15:51.022Z,17.88
2023-01-26T10:18:26.350Z,19.22
2023-01-26T10:21:00.761Z,18.14
2023-01-26T10:23:30.270Z,17.74
2023-01-26T10:26:11.208Z,18.77
2023-01-26T10:28:41.665Z,19.89
2023-01-26T10:31:16.813Z,18.20
2023-01-26T10:33:54.932Z,17.96
2023-01-26T10:36:22.619Z,17.74
2023-01-26T10:38:52.460Z,18.03
2023-01-26T10:41:19.843Z,18.04
2023-01-26T10:43:57.978Z,18.43
2023-01-26T10:46:29.738Z,17.79
2023-01-26T10:49:17.280Z,19.04
2023-01-26T10:52:04.938Z,19.31
2023-01-26T10:54:35.451Z,18.65
2023-01-26T10:57:14.813Z,18.24
2023-01-26T10:59:58.589Z,17.69
2023-01-26T11:02:29.846Z,17.84
2023-01-26T11:05:09.591Z,18.08
2023-01-26T11:07:39.892Z,17.77
2023-01-26T11:10:19.571Z,17.55
2023-01-26T11:12:48.032Z,17.80
2023-01-26T11:15:18.368Z,17.53
2023-01-26T11:17:58.625Z,17.21
2023-01-26T11:20:46.648Z,16.92
2023-01-26T11:23:29.373Z,17.49
2023-01-26T11:26:18.692Z,17.05
2023-01-26T11:28:46.115Z,19.95
2023-01-26T11:31:30.657Z,19.37
2023-01-26T11:34:16.257Z,18.86
2023-01-26T11:36:55.629Z,17.76
2023-01-26T11:39:35.178Z,18.19
2023-01-26T11:42:17.766Z,17.40
2023-01-26T11:45:04.433Z,18.69
2023-01-26T11:47:37.561Z,19.38
2023-01-26T11:50:37.803Z,18.68
2023-01-26T11:53:33.475Z,20.20
2023-01-26T11:56:42.349Z,18.09
2023-01-26T11:59:26.817Z,18.81
2023-01-26T12:02:20.353Z,17.35
2023-01-26T12:04:48.247Z,17.86
2023-01-26T12:07:33.933Z,18.70
2023-01-26T12:10:05.353Z,18.38
2023-01-26T12:12:49.787Z,17.78
2023-01-26T12:15:34.647Z,17.48
2023-01-26T12:18:15.536Z,17.79
2023-01-26T12:20:51.908Z,18.39
2023-01-26T12:23:42.205Z,18.10
2023-01-26T12:26:14.935Z,17.88
2023-01-26T12:28:54.888Z,17.21
2023-01-26T12:31:39.071Z,17.98
2023-01-26T12:34:12.367Z,17.79
2023-01-26T12:37:01.342Z,18.09
2023-01-26T12:39:46.048Z,18.29
2023-01-26T12:42:26.355Z,21.54
2023-01-26T12:45:02.159Z,20.39
2023-01-26T12:47:46.651Z,18.87
2023-01-26T12:50:46.994Z,17.54
2023-01-26T12:53:20.845Z,17.61
2023-01-26T12:55:55.057Z,18.22
2023-01-26T12:58:31.363Z,19.42
2023-01-26T13:01:01.733Z,18.10
2023-01-26T13:03:33.802Z,18.64
2023-01-26T13:06:08.857Z,18.32
2023-01-26T13:08:36.736Z,17.79
2023-01-26T13:11:09.046Z,17.27
2023-01-26T13:13:56.455Z,18.73
2023-01-26T13:16:23.913Z,18.35
2023-01-26T13:18:51.376Z,18.47
2023-01-26T13:21:34.312Z,17.90
2023-01-26T13:24:01.882Z,18.72
2023-01-26T13:26:32.196Z,17.38
2023-01-26T13:29:32.373Z,17.48
2023-01-26T13:32:09.057Z,18.06
2023-01-26T13:34:45.163Z,17.58
2023-01-26T13:37:23.979Z,18.33
2023-01-26T13:39:58.559Z,18.12
2023-01-26T13:42:32.949Z,19.21
2023-01-26T13:45:08.300Z,18.24
2023-01-26T13:47:44.014Z,17.73
2023-01-26T13:50:33.510Z,18.82
2023-01-26T13:53:01.247Z,18.66
2023-01-26T13:55:33.222Z,18.24
2023-01-26T13:58:14.212Z,18.61
2023-01-26T14:00:42.026Z,18.92
2023-01-26T14:03:22.732Z,18.55
2023-01-26T14:05:57.684Z,17.93
2023-01-26T14:08:26.029Z,18.65
2023-01-26T14:10:53.904Z,18.49
2023-01-26T14:13:29.235Z,17.88
2023-01-26T14:16:00.526Z,18.27
2023-01-26T14:18:28.456Z,18.67
2023-01-26T14:21:29.157Z,18.09
2023-01-26T14:23:56.801Z,19.44
2023-01-26T14:26:31.485Z,18.41
2023-01-26T14:29:03.010Z,17.51
2023-01-26T14:31:32.233Z,18.35
2023-01-26T14:33:59.992Z,18.31
2023-01-26T14:36:32.132Z,18.00
2023-01-26T14:39:01.197Z,18.74
2023-01-26T14:41:31.812Z,18.56
2023-01-26T14:44:05.912Z,18.21
2023-01-26T14:46:48.581Z,18.81
2023-01-26T14:49:27.231Z,19.03
2023-01-26T14:51:57.764Z,18.33
2023-01-26T14:54:27.619Z,19.06
2023-01-26T14:56:56.153Z,19.56
2023-01-26T14:59:33.262Z,18.98
2023-01-26T15:02:19.384Z,19.36
2023-01-26T15:05:14.714Z,19.09
2023-01-26T15:07:56.559Z,18.88
2023-01-26T15:10:52.933Z,18.55
2023-01-26T15:13:23.986Z,18.70
2023-01-26T15:16:15.707Z,18.87
2023-01-26T15:18:43.515Z,18.30
2023-01-26T15:21:19.257Z,18.26
2023-01-26T15:23:52.290Z,17.74
2023-01-26T15:26:33.834Z,17.90
2023-01-26T15:29:07.244Z,18.22
2023-01-26T15:31:37.997Z,18.57
2023-01-26T15:34:06.551Z,19.53
2023-01-26T15:36:47.249Z,19.80
2023-01-26T15:39:19.606Z,20.64
2023-01-26T15:42:15.707Z,20.28
2023-01-26T15:44:43.212Z,20.63
2023-01-26T15:47:12.255Z,20.32
2023-01-26T15:49:40.210Z,21.26
2023-01-26T15:52:16.783Z,20.96
2023-01-26T15:54:44.633Z,20.31
2023-01-26T15:57:12.733Z,20.02
2023-01-26T15:59:40.688Z,18.98
2023-01-26T16:02:19.445Z,19.00
2023-01-26T16:04:47.878Z,20.52
2023-01-26T16:07:17.412Z,19.78
2023-01-26T16:09:45.402Z,19.69
2023-01-26T16:12:30.389Z,19.39
2023-01-26T16:14:58.790Z,19.46
2023-01-26T16:17:26.415Z,19.43
2023-01-26T16:19:54.541Z,20.10
2023-01-26T16:22:22.144Z,19.09
2023-01-26T16:24:49.634Z,18.58
2023-01-26T16:27:17.202Z,19.56
2023-01-26T16:29:44.823Z,19.08
2023-01-26T16:32:26.974Z,18.55
2023-01-26T16:34:54.526Z,18.26
2023-01-26T16:37:22.042Z,18.33
2023-01-26T16:39:49.643Z,18.24
2023-01-26T16:42:19.666Z,18.06
2023-01-26T16:44:47.779Z,17.84
2023-01-26T16:47:18.228Z,18.59
2023-01-26T16:49:46.050Z,18.29
2023-01-26T16:52:13.579Z,18.03
2023-01-26T16:54:41.052Z,18.22
2023-01-26T16:57:09.003Z,18.19
2023-01-26T16:59:36.793Z,18.88
2023-01-26T17:02:04.499Z,19.09
2023-01-26T17:04:32.193Z,18.40
2023-01-26T17:06:59.754Z,18.65
2023-01-26T17:09:28.086Z,19.60
2023-01-26T17:11:55.789Z,19.45
2023-01-26T17:14:24.468Z,19.24
2023-01-26T17:16:51.978Z,19.38
2023-01-26T17:19:19.575Z,19.02
2023-01-26T17:21:47.082Z,19.81
2023-01-26T17:24:14.592Z,19.96
2023-01-26T17:26:42.236Z,20.13
2023-01-26T17:29:11.101Z,19.15
2023-01-26T17:31:38.660Z,18.55
2023-01-26T17:34:08.168Z,18.34
2023-01-26T17:36:35.634Z,17.95
2023-01-26T17:39:03.469Z,18.56
2023-01-26T17:41:30.998Z,19.11
2023-01-26T17:43:58.633Z,18.57
2023-01-26T17:46:26.371Z,18.25
2023-01-26T17:48:54.636Z,18.25
2023-01-26T17:51:23.245Z,18.08
2023-01-26T17:53:51.014Z,19.61
2023-01-26T17:56:21.169Z,18.76
2023-01-26T17:58:51.621Z,18.73
2023-01-26T18:01:20.974Z,19.02
2023-01-26T18:03:48.826Z,19.51
2023-01-26T18:06:17.279Z,18.43
2023-01-26T18:08:44.815Z,17.94
2023-01-26T18:11:14.175Z,17.86
2023-01-26T18:13:43.104Z,17.96
2023-01-26T18:16:16.900Z,17.67
2023-01-26T18:18:45.104Z,18.72
2023-01-26T18:21:22.552Z,18.30
2023-01-26T18:23:52.472Z,18.25
2023-01-26T18:26:23.179Z,17.91
2023-01-26T18:28:51.411Z,17.97
2023-01-26T18:31:22.808Z,18.15
2023-01-26T18:33:51.076Z,18.07
2023-01-26T18:36:20.924Z,18.23
2023-01-26T18:41:25.828Z,18.47
2023-01-26T18:43:55.610Z,18.30
2023-01-26T18:46:23.355Z,17.88
2023-01-26T18:48:54.979Z,17.97
2023-01-26T18:51:22.867Z,17.64
2023-01-26T18:53:50.469Z,17.64
2023-01-26T18:56:18.408Z,17.64
2023-01-26T18:58:46.139Z,17.98
2023-01-26T19:01:16.396Z,18.92
2023-01-26T19:03:47.846Z,18.37
2023-01-26T19:06:18.160Z,17.81
2023-01-26T19:08:48.110Z,17.85
2023-01-26T19:11:15.690Z,18.14
2023-01-26T19:13:46.364Z,18.10
2023-01-26T19:16:13.867Z,18.18
2023-01-26T19:18:41.575Z,18.05
2023-01-26T19:21:10.722Z,18.44
2023-01-26T19:23:40.922Z,18.71
2023-01-26T19:26:18.185Z,19.54
2023-01-26T19:28:48.912Z,18.03
2023-01-26T19:31:19.776Z,18.31
2023-01-26T19:33:57.736Z,18.47
2023-01-26T19:36:28.503Z,18.20
2023-01-26T19:38:56.962Z,19.44
2023-01-26T19:41:25.882Z,18.96
2023-01-26T19:43:53.977Z,18.35
2023-01-26T19:46:22.192Z,18.88
2023-01-26T19:48:50.799Z,19.11
2023-01-26T19:51:21.620Z,19.02
2023-01-26T19:53:53.537Z,17.88
2023-01-26T19:56:24.423Z,18.57
2023-01-26T19:59:04.306Z,18.46
2023-01-26T20:01:33.577Z,19.14
2023-01-26T20:08:35.017Z,19.02
2023-01-26T20:11:05.027Z,18.12
2023-01-26T20:13:34.392Z,18.73
2023-01-26T20:16:03.638Z,18.65
2023-01-26T20:18:31.470Z,18.29
2023-01-26T20:21:01.061Z,18.73
2023-01-26T20:23:30.082Z,18.21
2023-01-26T20:26:15.978Z,17.44
2023-01-26T20:28:46.103Z,18.07
2023-01-26T20:31:18.081Z,17.95
2023-01-26T20:33:48.172Z,18.56
2023-01-26T20:36:19.245Z,18.38
2023-01-26T20:38:48.629Z,18.08
2023-01-26T20:41:20.467Z,18.26
2023-01-26T20:43:59.045Z,18.63
2023-01-26T20:46:31.422Z,19.04
2023-01-26T20:49:02.612Z,20.13
2023-01-26T20:51:34.019Z,18.88
2023-01-26T20:54:03.944Z,18.59
2023-01-26T20:56:31.759Z,18.75
2023-01-26T20:58:59.785Z,17.62
2023-01-26T21:01:28.136Z,17.79
2023-01-26T21:03:56.120Z,18.22
2023-01-26T21:06:24.649Z,17.95
2023-01-26T21:08:54.845Z,19.03
2023-01-26T21:11:24.685Z,19.41
2023-01-26T21:13:54.582Z,17.91
2023-01-26T21:16:23.152Z,18.73
2023-01-26T21:18:51.629Z,18.73
2023-01-26T21:21:19.536Z,17.83
2023-01-26T21:23:47.790Z,17.37
2023-01-26T21:26:22.376Z,18.17
2023-01-26T21:28:55.335Z,17.64
2023-01-26T21:31:25.299Z,18.08
2023-01-26T21:33:53.867Z,17.78
2023-01-26T21:36:23.720Z,18.33
2023-01-26T21:38:53.121Z,18.64
2023-01-26T21:41:44.959Z,19.45
2023-01-26T21:45:00.205Z,19.08
2023-01-26T21:47:27.741Z,19.85
2023-01-26T21:49:56.224Z,20.54
2023-01-26T21:52:42.212Z,20.02
2023-01-26T21:55:09.885Z,18.66
2023-01-26T21:57:55.665Z,18.20
2023-01-26T22:00:23.354Z,18.62
2023-01-26T22:02:50.981Z,18.50
2023-01-26T22:05:18.659Z,18.05
2023-01-26T22:07:46.218Z,17.82
2023-01-26T22:10:14.021Z,18.06
2023-01-26T22:12:41.679Z,17.88
2023-01-26T22:15:09.777Z,18.18
2023-01-26T22:17:37.262Z,17.56
2023-01-26T22:20:05.502Z,18.25
2023-01-26T22:22:35.502Z,18.22
2023-01-26T22:25:03.017Z,18.06
2023-01-26T22:27:30.629Z,17.76
2023-01-26T22:29:59.881Z,17.64
2023-01-26T22:32:27.500Z,18.00
2023-01-26T22:34:54.986Z,18.21
2023-01-26T22:37:22.724Z,18.34
2023-01-26T22:39:50.352Z,18.15
2023-01-26T22:42:19.349Z,18.34
2023-01-26T22:44:46.833Z,18.72
2023-01-26T22:47:14.345Z,18.37
2023-01-26T22:49:42.007Z,18.66
2023-01-26T22:52:09.700Z,18.77
2023-01-26T22:54:37.295Z,18.98
2023-01-26T22:57:04.782Z,18.61
2023-01-26T22:59:32.298Z,18.30
2023-01-26T23:01:59.833Z,18.49
2023-01-26T23:04:27.509Z,18.49
2023-01-26T23:06:55.016Z,18.66
2023-01-26T23:09:23.080Z,18.80
2023-01-26T23:12:02.863Z,19.09
2023-01-26T23:14:31.697Z,19.00
2023-01-26T23:16:59.517Z,18.51
2023-01-26T23:19:27.205Z,18.99
2023-01-26T23:21:54.764Z,18.85
2023-01-26T23:24:22.673Z,18.73
2023-01-26T23:26:50.156Z,18.55
2023-01-26T23:29:17.754Z,18.97
2023-01-26T23:31:45.227Z,18.71
2023-01-26T23:34:12.855Z,19.87
2023-01-26T23:36:40.517Z,18.72
2023-01-26T23:39:08.544Z,18.65
2023-01-26T23:41:36.114Z,18.27
2023-01-26T23:44:03.893Z,18.60
2023-01-26T23:46:31.546Z,18.46
2023-01-26T23:48:59.137Z,18.50
2023-01-26T23:51:26.861Z,18.95
2023-01-26T23:53:55.783Z,19.40
2023-01-26T23:56:23.285Z,19.35
2023-01-26T23:58:50.876Z,18.65
